Time;durP1;ratioP1;P1;durP2;ratioP2;P2;SDS_P1;SDS_P2;PMS_P1;PMS_P2;Temp;Humidity;BMP_temperature;BMP_pressure;BME280_temperature;BME280_humidity;BME280_pressure;Samples;Min_cycle;Max_cycle;Signal;HPM_P1;HPM_P2
2022/06/01 00:00:47;;;;;;;;;2.00;2.00;;;;;17.95;33.37;101067.41;4966501;28;45303;-49
2022/06/01 00:03:13;;;;;;;;;5.50;4.25;;;;;17.94;33.30;101065.66;4972990;28;46953;-49
2022/06/01 00:05:39;;;;;;;;;4.00;4.00;;;;;17.90;33.60;101063.16;4959877;28;45396;-50
2022/06/01 00:08:05;;;;;;;;;3.75;3.50;;;;;17.86;33.45;101057.97;4972479;28;45458;-52
2022/06/01 00:10:30;;;;;;;;;3.00;2.25;;;;;17.86;33.52;101073.03;4966986;28;45355;-51
2022/06/01 00:12:56;;;;;;;;;4.00;3.50;;;;;17.84;33.63;101069.59;4938651;28;47189;-52
2022/06/01 00:15:24;;;;;;;;;2.00;2.00;;;;;17.83;33.66;101070.50;4964375;28;45402;-50
2022/06/01 00:17:49;;;;;;;;;3.50;3.00;;;;;17.77;33.66;101058.31;4971942;28;45332;-50
2022/06/01 00:20:15;;;;;;;;;3.00;3.00;;;;;17.77;33.77;101076.91;4949169;28;45396;-50
2022/06/01 00:22:42;;;;;;;;;4.00;2.75;;;;;17.73;33.76;101066.47;4954309;28;47138;-50
2022/06/01 00:25:08;;;;;;;;;2.75;2.00;;;;;17.72;33.75;101078.88;4966194;28;45389;-49
2022/06/01 00:27:36;;;;;;;;;6.25;3.25;;;;;17.70;33.55;101076.28;4953572;28;45471;-52
2022/06/01 00:30:04;;;;;;;;;2.00;2.00;;;;;17.68;33.92;101077.28;4963235;28;45465;-51
2022/06/01 00:32:30;;;;;;;;;3.50;3.00;;;;;17.64;34.06;101076.53;4967172;28;47207;-49
2022/06/01 00:34:55;;;;;;;;;3.00;3.00;;;;;17.62;33.99;101078.41;4964281;28;45222;-52
2022/06/01 00:37:21;;;;;;;;;2.75;2.75;;;;;17.60;33.90;101076.72;4965157;28;45852;-48
2022/06/01 00:39:47;;;;;;;;;3.00;3.00;;;;;17.58;33.87;101073.25;4959259;28;45295;-51
2022/06/01 00:42:14;;;;;;;;;5.00;3.00;;;;;17.56;34.10;101070.66;4971943;28;47246;-50
2022/06/01 00:44:40;;;;;;;;;4.00;2.75;;;;;17.53;34.21;101074.31;4963344;28;45410;-49
2022/06/01 00:47:06;;;;;;;;;2.50;2.25;;;;;17.49;34.28;101070.00;4971145;28;45470;-51
2022/06/01 00:49:35;;;;;;;;;2.00;2.00;;;;;17.46;34.15;101063.94;4966143;28;45426;-51
2022/06/01 00:52:01;;;;;;;;;4.25;4.00;;;;;17.45;34.21;101070.22;4970987;28;46296;-49
2022/06/01 00:54:27;;;;;;;;;2.50;2.50;;;;;17.44;34.47;101074.63;4958325;28;45196;-51
2022/06/01 00:57:00;;;;;;;;;4.00;3.50;;;;;17.42;34.07;101073.84;4971369;28;45386;-47
2022/06/01 00:59:32;;;;;;;;;3.50;3.50;;;;;17.38;34.43;101070.44;4966544;28;45247;-50
2022/06/01 01:02:02;;;;;;;;;4.75;3.00;;;;;17.34;34.41;101071.44;4969503;28;45399;-50
2022/06/01 01:04:31;;;;;;;;;3.00;3.00;;;;;17.35;34.28;101081.16;4950459;28;45898;-50
2022/06/01 01:07:02;;;;;;;;;3.25;2.25;;;;;17.31;34.46;101073.38;4968564;28;45327;-53
2022/06/01 01:09:28;;;;;;;;;2.50;2.50;;;;;17.29;34.64;101075.22;4969645;28;45414;-52
2022/06/01 01:12:06;;;;;;;;;3.00;3.00;;;;;17.28;34.75;101077.03;4967718;28;45425;-49
2022/06/01 01:14:36;;;;;;;;;2.00;2.00;;;;;17.26;34.52;101076.19;4968671;28;45382;-53
2022/06/01 01:17:04;;;;;;;;;4.25;3.00;;;;;17.22;34.51;101072.78;4966050;28;45450;-49
2022/06/01 01:19:55;;;;;;;;;5.00;4.00;;;;;17.20;34.98;101069.31;4953304;28;45873;-49
2022/06/01 01:22:43;;;;;;;;;3.00;3.00;;;;;17.16;34.67;101072.16;4966831;28;46264;-52
2022/06/01 01:25:24;;;;;;;;;2.00;1.25;;;;;17.15;34.93;101078.38;4959642;28;45323;-52
2022/06/01 01:27:53;;;;;;;;;3.00;3.00;;;;;17.13;35.01;101067.81;4966219;28;45172;-48
2022/06/01 01:30:40;;;;;;;;;5.00;4.75;;;;;17.10;35.31;101064.41;4968147;28;45464;-49
2022/06/01 01:33:12;;;;;;;;;3.00;3.00;;;;;17.06;34.99;101072.47;4962103;28;46131;-51
2022/06/01 01:35:38;;;;;;;;;2.00;2.00;;;;;17.05;34.71;101081.34;4967640;28;45489;-51
2022/06/01 01:38:09;;;;;;;;;3.75;3.75;;;;;17.03;34.77;101071.72;4955681;28;45358;-50
2022/06/01 01:40:35;;;;;;;;;4.00;2.75;;;;;17.01;35.29;101078.88;4970039;28;45262;-50
2022/06/01 01:43:02;;;;;;;;;3.50;2.00;;;;;16.98;35.04;101077.19;4963552;28;45241;-49
2022/06/01 01:45:30;;;;;;;;;3.50;3.50;;;;;16.93;35.42;101072.97;4945954;28;45340;-50
2022/06/01 01:47:56;;;;;;;;;3.25;3.00;;;;;16.93;35.33;101065.00;4960549;28;45328;-47
2022/06/01 01:50:23;;;;;;;;;3.00;3.00;;;;;16.89;35.05;101070.41;4960056;28;45474;-48
2022/06/01 01:52:49;;;;;;;;;3.00;3.00;;;;;16.84;35.24;101063.50;4960398;28;46291;-50
2022/06/01 01:55:19;;;;;;;;;4.00;3.25;;;;;16.85;35.16;101067.91;4960084;28;45600;-46
2022/06/01 01:58:00;;;;;;;;;4.25;3.25;;;;;16.83;35.63;101067.97;4963648;28;45351;-48
2022/06/01 02:00:39;;;;;;;;;4.00;4.00;;;;;16.80;35.39;101065.41;4963425;28;45267;-46
2022/06/01 02:03:10;;;;;;;;;2.75;2.75;;;;;16.78;35.28;101058.41;4946032;28;48159;-50
2022/06/01 02:06:05;;;;;;;;;4.75;4.50;;;;;16.74;35.56;101055.88;4963106;28;45303;-50
2022/06/01 02:08:49;;;;;;;;;4.25;3.25;;;;;16.72;35.90;101049.75;4963375;28;45237;-47
2022/06/01 02:14:29;;;;;;;;;4.75;3.25;;;;;16.67;35.81;101045.53;4962719;28;45821;-51
2022/06/01 02:17:18;;;;;;;;;4.00;4.00;;;;;16.64;35.93;101046.50;4944907;28;45432;-48
2022/06/01 02:19:52;;;;;;;;;3.00;3.00;;;;;16.62;35.51;101039.53;4961740;28;45473;-48
2022/06/01 02:22:18;;;;;;;;;4.25;4.25;;;;;16.58;35.80;101042.28;4962962;28;45493;-51
2022/06/01 02:24:44;;;;;;;;;5.00;4.75;;;;;16.56;36.12;101035.28;4962868;28;45474;-48
2022/06/01 02:27:12;;;;;;;;;5.25;4.00;;;;;16.51;36.26;101035.44;4945463;28;45388;-49
2022/06/01 02:29:37;;;;;;;;;4.00;4.00;;;;;16.52;35.81;101034.53;4962921;28;45197;-46
2022/06/01 02:32:04;;;;;;;;;0.50;0.25;;;;;16.51;36.22;101032.78;4962749;28;45545;-51
2022/06/01 02:34:32;;;;;;;;;6.25;6.25;;;;;16.48;36.26;101032.91;4947189;28;45543;-51
2022/06/01 02:37:04;;;;;;;;;5.00;4.25;;;;;16.42;36.37;101031.31;4962691;28;45445;-46
2022/06/01 02:39:31;;;;;;;;;5.00;5.00;;;;;16.44;36.46;101039.25;4934051;28;45428;-47
2022/06/01 02:42:28;;;;;;;;;5.00;4.00;;;;;16.41;36.56;101036.66;4962815;28;45728;-47
2022/06/01 02:44:57;;;;;;;;;5.00;5.00;;;;;16.38;36.49;101039.44;4949033;28;46514;-47
2022/06/01 02:47:24;;;;;;;;;6.50;4.00;;;;;16.35;36.60;101029.81;4958842;28;45228;-48
2022/06/01 02:49:50;;;;;;;;;5.00;5.00;;;;;16.34;36.97;101035.13;4962713;28;45440;-48
2022/06/01 02:52:16;;;;;;;;;6.75;5.00;;;;;16.32;36.69;101037.00;4962676;28;45354;-47
2022/06/01 02:54:41;;;;;;;;;10.00;7.50;;;;;16.29;36.91;101023.81;4962661;28;46326;-49
2022/06/01 02:57:07;;;;;;;;;7.25;5.00;;;;;16.27;36.67;101028.31;4962835;28;45573;-49
2022/06/01 02:59:33;;;;;;;;;11.00;7.50;;;;;16.25;37.18;101031.88;4962828;28;45467;-51
2022/06/01 03:01:59;;;;;;;;;6.75;6.00;;;;;16.22;37.08;101028.47;4962472;28;45406;-50
2022/06/01 03:04:26;;;;;;;;;6.00;6.00;;;;;16.20;36.86;101023.22;4962336;28;46126;-50
2022/06/01 03:06:52;;;;;;;;;7.25;7.00;;;;;16.19;37.05;101025.94;4962234;28;45443;-52
2022/06/01 03:09:17;;;;;;;;;7.50;5.25;;;;;16.15;37.04;101033.13;4961808;28;45446;-51
2022/06/01 03:11:43;;;;;;;;;6.00;5.00;;;;;16.13;37.04;101027.00;4960495;28;45268;-48
2022/06/01 03:14:08;;;;;;;;;7.50;5.50;;;;;16.08;37.42;101035.09;4962236;28;45271;-49
2022/06/01 03:16:33;;;;;;;;;10.00;6.00;;;;;16.08;37.12;101034.22;4962209;28;45176;-48
2022/06/01 03:18:59;;;;;;;;;6.75;5.25;;;;;16.00;37.54;101023.00;4962233;28;46575;-50
2022/06/01 03:21:24;;;;;;;;;5.25;5.25;;;;;16.05;37.13;101040.50;4962324;28;45189;-50
2022/06/01 03:23:49;;;;;;;;;8.75;6.75;;;;;16.03;37.54;101030.88;4962138;28;45243;-48
2022/06/01 03:26:15;;;;;;;;;11.25;9.50;;;;;16.00;37.44;101039.78;4962128;28;45349;-51
2022/06/01 03:28:40;;;;;;;;;7.75;7.00;;;;;15.99;37.50;101045.16;4962466;28;45650;-51
2022/06/01 03:31:06;;;;;;;;;8.50;7.50;;;;;15.96;37.66;101042.56;4961855;28;45236;-47
2022/06/01 03:33:37;;;;;;;;;7.25;7.25;;;;;15.90;37.48;101028.59;4961661;28;45290;-48
2022/06/01 03:36:04;;;;;;;;;9.50;6.00;;;;;15.91;37.82;101042.72;4961960;28;45441;-49
2022/06/01 03:38:30;;;;;;;;;11.25;7.75;;;;;15.87;37.77;101044.63;4952995;28;45309;-51
2022/06/01 03:40:56;;;;;;;;;10.75;8.00;;;;;15.87;37.86;101047.28;4957889;28;45618;-51
2022/06/01 03:43:21;;;;;;;;;4.50;4.50;;;;;15.85;37.87;101043.78;4961932;28;45332;-51
2022/06/01 03:45:56;;;;;;;;;9.75;7.50;;;;;15.83;37.67;101042.94;4954420;28;45410;-49
2022/06/01 03:48:23;;;;;;;;;9.00;7.00;;;;;15.82;38.07;101043.00;4961909;28;45225;-52
2022/06/01 03:50:49;;;;;;;;;10.25;8.75;;;;;15.79;37.98;101051.03;4961723;28;45321;-49
2022/06/01 03:53:14;;;;;;;;;6.00;6.00;;;;;15.77;37.65;101057.25;4960497;28;47150;-49
2022/06/01 03:55:40;;;;;;;;;8.50;7.75;;;;;15.75;37.80;101058.22;4961618;28;45331;-46
2022/06/01 03:58:06;;;;;;;;;7.25;6.75;;;;;15.73;38.13;101058.22;4962059;28;45317;-49
2022/06/01 04:00:32;;;;;;;;;8.25;7.75;;;;;15.72;37.73;101058.28;4961512;28;46158;-51
2022/06/01 04:02:57;;;;;;;;;9.75;6.00;;;;;15.70;38.43;101071.59;4961543;28;46088;-46
2022/06/01 04:05:23;;;;;;;;;11.75;9.75;;;;;15.69;37.98;101058.41;4961326;28;45454;-45
2022/06/01 04:07:49;;;;;;;;;25.25;20.25;;;;;15.63;38.16;101054.13;4944269;28;45275;-47
2022/06/01 04:10:15;;;;;;;;;47.75;40.50;;;;;15.65;38.05;101056.75;4960174;28;45525;-49
2022/06/01 04:12:41;;;;;;;;;28.75;25.50;;;;;15.64;37.93;101055.88;4960151;28;46149;-50
2022/06/01 04:15:08;;;;;;;;;26.00;22.50;;;;;15.63;38.43;101054.13;4961394;28;45232;-47
2022/06/01 04:17:35;;;;;;;;;6.00;6.00;;;;;15.60;38.48;101051.59;4961679;28;45339;-52
2022/06/01 04:20:00;;;;;;;;;10.75;10.25;;;;;15.60;38.02;101063.03;4959644;28;45510;-49
2022/06/01 04:22:26;;;;;;;;;7.00;7.00;;;;;15.58;38.14;101059.59;4961375;28;45438;-48
2022/06/01 04:24:51;;;;;;;;;6.75;6.00;;;;;15.55;38.64;101058.81;4961261;28;45268;-49
2022/06/01 04:27:17;;;;;;;;;7.50;7.50;;;;;15.52;38.30;101059.78;4961428;28;45371;-51
2022/06/01 04:29:42;;;;;;;;;7.25;7.25;;;;;15.54;38.63;101067.66;4961176;28;45535;-50
2022/06/01 04:32:11;;;;;;;;;11.00;8.00;;;;;15.53;38.82;101077.38;4960984;28;46118;-51
2022/06/01 04:34:37;;;;;;;;;8.50;7.25;;;;;15.52;38.94;101077.44;4960945;28;45173;-48
2022/06/01 04:37:03;;;;;;;;;7.50;6.00;;;;;15.51;38.69;101083.63;4961267;28;45547;-51
2022/06/01 04:39:28;;;;;;;;;9.50;9.50;;;;;15.49;38.86;101083.69;4947851;28;45297;-50
2022/06/01 04:41:54;;;;;;;;;11.25;8.50;;;;;15.48;38.81;101081.09;4959743;28;46098;-51
2022/06/01 04:44:20;;;;;;;;;6.75;6.00;;;;;15.46;39.11;101085.53;4961088;28;45438;-51
2022/06/01 04:46:45;;;;;;;;;10.50;9.25;;;;;15.47;39.11;101090.81;4953749;28;45426;-52
2022/06/01 04:49:11;;;;;;;;;11.00;10.25;;;;;15.46;38.97;101086.44;4960465;28;45388;-51
2022/06/01 04:51:37;;;;;;;;;11.25;10.25;;;;;15.44;38.83;101085.59;4960946;28;45299;-50
2022/06/01 04:54:05;;;;;;;;;13.25;8.75;;;;;15.43;39.24;101086.50;4960999;28;45490;-51
2022/06/01 04:56:31;;;;;;;;;7.50;7.50;;;;;15.44;39.00;101090.91;4960991;28;45315;-50
2022/06/01 04:58:56;;;;;;;;;11.00;9.75;;;;;15.45;39.06;101097.94;4960567;28;45228;-51
2022/06/01 05:01:22;;;;;;;;;10.50;8.00;;;;;15.44;39.12;101102.38;4960574;28;45918;-49
2022/06/01 05:03:47;;;;;;;;;10.00;8.50;;;;;15.45;39.41;101111.19;4960609;28;45398;-51
2022/06/01 05:06:12;;;;;;;;;10.50;8.75;;;;;15.44;39.52;101112.09;4943475;28;45432;-50
2022/06/01 05:08:38;;;;;;;;;10.00;10.00;;;;;15.41;39.27;101109.53;4960671;28;45381;-48
2022/06/01 05:11:03;;;;;;;;;10.50;9.50;;;;;15.44;39.83;101114.72;4960923;28;45387;-51
2022/06/01 05:13:29;;;;;;;;;9.50;9.50;;;;;15.44;39.48;101117.38;4943377;28;45362;-48
2022/06/01 05:15:58;;;;;;;;;11.00;8.75;;;;;15.44;39.73;101114.72;4960792;28;45421;-49
2022/06/01 05:18:24;;;;;;;;;11.25;9.25;;;;;15.46;39.40;101115.56;4960195;28;45498;-49
2022/06/01 05:20:50;;;;;;;;;10.50;7.00;;;;;15.47;39.40;101119.97;4960530;28;46012;-49
2022/06/01 05:23:17;;;;;;;;;9.50;9.50;;;;;15.48;39.62;101115.50;4960327;28;45193;-50
2022/06/01 05:25:44;;;;;;;;;12.75;10.25;;;;;15.49;39.70;101110.16;4960711;28;45288;-49
2022/06/01 05:28:11;;;;;;;;;12.50;12.50;;;;;15.50;39.32;101114.56;4960272;28;45405;-47
2022/06/01 05:30:37;;;;;;;;;9.75;9.50;;;;;15.51;39.74;101111.00;4960531;28;45393;-50
2022/06/01 05:33:03;;;;;;;;;9.00;6.00;;;;;15.49;39.74;101110.16;4963879;28;45287;-48
2022/06/01 05:35:28;;;;;;;;;11.25;10.50;;;;;15.46;39.43;101099.69;4963601;28;45427;-49
2022/06/01 05:37:54;;;;;;;;;12.00;10.25;;;;;15.56;39.98;101114.38;4959480;28;45199;-49
2022/06/01 05:40:19;;;;;;;;;9.25;6.25;;;;;15.55;39.54;101107.34;4954823;28;46017;-50
2022/06/01 05:42:44;;;;;;;;;11.75;11.00;;;;;15.59;40.04;101108.97;4963275;28;45283;-48
2022/06/01 05:45:10;;;;;;;;;13.25;10.25;;;;;15.61;39.64;101103.66;4958740;28;45209;-51
2022/06/01 05:47:37;;;;;;;;;11.50;10.25;;;;;15.63;39.66;101101.81;4960207;28;45362;-47
2022/06/01 05:50:04;;;;;;;;;16.00;12.25;;;;;15.65;39.83;101099.16;4963455;28;46317;-49
2022/06/01 05:52:29;;;;;;;;;12.75;9.50;;;;;15.67;40.04;101099.94;4963565;28;45345;-48
2022/06/01 05:54:54;;;;;;;;;11.00;11.00;;;;;15.69;39.94;101098.13;4946244;28;45299;-51
2022/06/01 05:57:20;;;;;;;;;14.75;11.75;;;;;15.71;40.31;101106.88;4963388;28;45415;-49
2022/06/01 05:59:46;;;;;;;;;12.50;11.00;;;;;15.73;40.31;101110.38;4963366;28;46088;-49
2022/06/01 06:02:11;;;;;;;;;13.25;13.00;;;;;15.76;39.96;101110.28;4963256;28;45266;-50
2022/06/01 06:04:37;;;;;;;;;11.00;10.00;;;;;15.78;39.94;101108.44;4945947;28;45392;-50
2022/06/01 06:07:02;;;;;;;;;12.25;11.50;;;;;15.81;40.18;101110.13;4963162;28;45565;-50
2022/06/01 06:09:28;;;;;;;;;13.75;13.00;;;;;15.84;39.82;101107.44;4962748;28;45248;-50
2022/06/01 06:11:53;;;;;;;;;14.75;13.50;;;;;15.85;39.87;101112.69;4963152;28;45335;-51
2022/06/01 06:14:19;;;;;;;;;12.75;12.25;;;;;15.89;40.18;101109.00;4963469;28;45235;-52
2022/06/01 06:16:45;;;;;;;;;13.50;13.00;;;;;15.93;40.18;101112.44;4962922;28;45406;-48
2022/06/01 06:19:16;;;;;;;;;16.00;16.00;;;;;15.96;40.41;101116.78;4962528;28;45499;-53
2022/06/01 06:21:42;;;;;;;;;14.75;14.25;;;;;15.98;40.35;101104.38;4962916;28;45312;-50
2022/06/01 06:24:13;;;;;;;;;9.50;9.50;;;;;15.99;40.19;101108.75;4963209;28;45558;-51
2022/06/01 06:26:42;;;;;;;;;11.50;11.50;;;;;16.04;40.18;101112.13;4963170;28;45466;-51
2022/06/01 06:29:10;;;;;;;;;12.75;11.00;;;;;16.06;39.92;101112.94;4962634;28;46173;-52
2022/06/01 06:31:36;;;;;;;;;8.75;8.75;;;;;16.08;40.17;101119.06;4962914;28;45180;-52
2022/06/01 06:34:02;;;;;;;;;10.00;7.25;;;;;16.11;40.04;101113.66;4948813;28;45321;-49
2022/06/01 06:36:28;;;;;;;;;8.50;7.00;;;;;16.15;40.27;101119.72;4945203;28;45589;-49
2022/06/01 06:38:54;;;;;;;;;7.75;7.75;;;;;16.17;40.29;101115.25;4950476;28;46376;-51
2022/06/01 06:41:21;;;;;;;;;7.00;6.00;;;;;16.19;40.29;101124.88;4962126;28;45332;-51
2022/06/01 06:43:47;;;;;;;;;4.00;4.00;;;;;16.24;40.22;101122.97;4961914;28;45367;-49
2022/06/01 06:46:15;;;;;;;;;3.75;3.75;;;;;16.28;39.97;101120.22;4937073;28;45536;-50
2022/06/01 06:48:41;;;;;;;;;3.75;2.00;;;;;16.32;39.91;101127.16;4962395;28;47346;-49
2022/06/01 06:51:07;;;;;;;;;2.00;2.00;;;;;16.35;39.61;101124.38;4945276;28;45844;-47
2022/06/01 06:53:33;;;;;;;;;4.00;3.00;;;;;16.39;39.82;101121.59;4962711;28;45355;-48
2022/06/01 06:55:59;;;;;;;;;5.50;5.50;;;;;16.43;39.75;101125.03;4962632;28;45637;-49
2022/06/01 06:58:25;;;;;;;;;6.50;5.25;;;;;16.46;39.97;101124.06;4962417;28;46127;-52
2022/06/01 07:00:50;;;;;;;;;4.75;4.75;;;;;16.47;39.66;101131.09;4962495;28;45384;-48
2022/06/01 07:03:16;;;;;;;;;4.50;4.00;;;;;16.46;39.73;101124.06;4962582;28;45245;-48
2022/06/01 07:08:28;;;;;;;;;6.25;5.25;;;;;16.55;39.72;101129.94;4962352;28;45864;-47
2022/06/01 07:10:55;;;;;;;;;4.00;4.00;;;;;16.60;39.78;101131.56;4962272;28;45276;-49
2022/06/01 07:13:21;;;;;;;;;6.75;5.00;;;;;16.62;39.84;101132.38;4962370;28;45541;-50
2022/06/01 07:15:47;;;;;;;;;4.00;4.00;;;;;16.67;39.44;101133.09;4962265;28;45252;-46
2022/06/01 07:18:13;;;;;;;;;6.00;3.00;;;;;16.72;39.65;101131.16;4961905;28;46069;-46
2022/06/01 07:20:38;;;;;;;;;5.00;5.00;;;;;16.76;39.53;101137.22;4962126;28;45457;-51
2022/06/01 07:23:04;;;;;;;;;7.75;6.00;;;;;16.80;39.57;101131.75;4952571;28;45496;-46
2022/06/01 07:25:29;;;;;;;;;4.00;3.00;;;;;16.83;39.48;101141.38;4969730;28;46319;-49
2022/06/01 07:27:56;;;;;;;;;5.00;5.00;;;;;16.87;39.67;101138.59;4967057;28;46264;-50
2022/06/01 07:30:21;;;;;;;;;6.75;5.25;;;;;16.94;39.54;101141.06;4969342;28;45300;-47
2022/06/01 07:32:48;;;;;;;;;6.75;6.75;;;;;16.97;39.62;101136.50;4967904;28;45675;-48
2022/06/01 07:35:14;;;;;;;;;5.75;5.75;;;;;16.99;39.44;101140.00;4969786;28;45369;-51
2022/06/01 07:43:10;;;;;;;;;4.25;4.25;;;;;17.12;39.55;101132.47;4956562;28;45370;-51
2022/06/01 07:45:45;;;;;;;;;5.00;5.00;;;;;17.16;39.45;101138.53;4966226;28;45456;-51
2022/06/01 07:48:11;;;;;;;;;3.50;3.00;;;;;17.19;39.52;101143.72;4954565;28;46149;-50
2022/06/01 07:50:37;;;;;;;;;6.00;6.00;;;;;17.20;39.26;101137.50;4960873;28;45329;-47
2022/06/01 07:53:04;;;;;;;;;2.50;2.50;;;;;17.22;39.41;101136.50;4944185;28;45513;-50
2022/06/01 07:55:29;;;;;;;;;5.25;3.25;;;;;17.25;39.37;101135.53;4961124;28;45434;-46
2022/06/01 07:57:55;;;;;;;;;5.00;5.00;;;;;17.30;39.15;101138.91;4960444;28;46320;-46
2022/06/01 08:00:21;;;;;;;;;4.00;4.00;;;;;17.31;38.84;101140.63;4960188;28;45748;-48
2022/06/01 08:02:47;;;;;;;;;6.25;4.00;;;;;17.36;39.03;101140.47;4961489;28;45300;-46
2022/06/01 08:05:15;;;;;;;;;5.25;5.00;;;;;17.36;39.13;101138.69;4961382;28;45664;-49
2022/06/01 08:07:41;;;;;;;;;4.00;4.00;;;;;17.42;39.00;101142.03;4961386;28;46094;-47
2022/06/01 08:10:08;;;;;;;;;4.25;4.00;;;;;17.44;39.08;101143.72;4961104;28;45332;-47
2022/06/01 08:15:18;;;;;;;;;3.25;3.25;;;;;17.52;39.01;101133.69;4961448;28;45323;-46
2022/06/01 08:17:46;;;;;;;;;4.25;3.00;;;;;17.55;38.90;101136.19;4960889;28;46310;-47
2022/06/01 08:20:12;;;;;;;;;3.00;3.00;;;;;17.57;38.93;101135.28;4948337;28;45362;-45
2022/06/01 08:22:38;;;;;;;;;3.00;3.00;;;;;17.58;38.86;101134.38;4961299;28;45286;-48
2022/06/01 08:25:05;;;;;;;;;4.00;3.75;;;;;17.59;38.96;101131.66;4961270;28;45300;-46
2022/06/01 08:27:30;;;;;;;;;5.00;3.00;;;;;17.63;38.96;101133.25;4961098;28;46385;-48
2022/06/01 08:29:56;;;;;;;;;4.00;4.00;;;;;17.65;38.73;101136.72;4943317;28;45354;-48
2022/06/01 08:32:21;;;;;;;;;3.00;3.00;;;;;17.69;38.69;101135.69;4961066;28;45263;-48
2022/06/01 08:34:47;;;;;;;;;4.75;3.75;;;;;17.72;39.04;101137.34;4961317;28;45410;-48
2022/06/01 08:37:12;;;;;;;;;3.00;3.00;;;;;17.74;38.65;101132.00;4961125;28;45405;-47
2022/06/01 08:39:37;;;;;;;;;2.25;2.25;;;;;17.78;38.70;101133.63;4946816;28;45827;-49
2022/06/01 08:42:04;;;;;;;;;3.00;2.75;;;;;17.83;38.46;101136.97;4961189;28;45352;-49
2022/06/01 08:44:38;;;;;;;;;2.25;2.00;;;;;17.89;38.58;101130.56;4961319;28;45308;-47
2022/06/01 08:47:08;;;;;;;;;3.75;2.50;;;;;17.90;38.66;101137.59;4954320;28;45944;-50
2022/06/01 08:49:35;;;;;;;;;4.50;3.25;;;;;17.94;38.50;101136.59;4948294;28;45402;-47
2022/06/01 08:52:01;;;;;;;;;3.00;3.00;;;;;17.98;38.59;101140.84;4960987;28;45220;-47
2022/06/01 08:54:27;;;;;;;;;3.25;3.25;;;;;18.03;38.38;101129.09;4961015;28;45213;-49
2022/06/01 08:57:05;;;;;;;;;5.00;4.75;;;;;17.98;38.19;101120.44;4960705;28;46994;-47
2022/06/01 08:59:48;;;;;;;;;3.00;3.00;;;;;18.08;38.31;101136.91;4960886;28;45376;-46
2022/06/01 09:03:02;;;;;;;;;3.00;3.00;;;;;18.12;38.14;101148.28;4959506;28;45484;-46
2022/06/01 09:05:47;;;;;;;;;2.00;2.00;;;;;18.16;38.11;101140.13;4914793;28;45298;-48
2022/06/01 09:08:50;;;;;;;;;4.00;3.75;;;;;18.20;38.11;101146.22;4904333;28;45289;-45
2022/06/01 09:11:26;;;;;;;;;2.00;2.00;;;;;18.24;37.81;101145.16;4932939;28;45445;-46
2022/06/01 09:14:26;;;;;;;;;3.00;2.00;;;;;18.29;38.06;101145.84;4964458;28;45252;-46
2022/06/01 09:16:55;;;;;;;;;3.25;3.25;;;;;18.34;38.18;101143.84;4956364;28;45615;-45
2022/06/01 09:19:26;;;;;;;;;2.50;2.50;;;;;18.41;38.22;101152.44;4963712;28;45308;-48
2022/06/01 09:24:54;;;;;;;;;4.25;3.25;;;;;18.53;38.19;101148.44;4964052;28;45307;-48
2022/06/01 09:27:38;;;;;;;;;3.25;3.25;;;;;18.59;37.87;101142.84;4963939;28;45323;-48
2022/06/01 09:30:18;;;;;;;;;3.50;2.50;;;;;18.66;38.13;101138.13;4953405;28;46192;-48
2022/06/01 09:33:03;;;;;;;;;4.50;3.50;;;;;18.72;38.05;101140.53;4963702;28;45430;-47
2022/06/01 09:35:38;;;;;;;;;5.00;4.00;;;;;18.79;37.73;101130.47;4963935;28;45467;-49
2022/06/01 09:38:17;;;;;;;;;5.00;4.00;;;;;18.88;37.90;101138.09;4944887;28;45467;-49
2022/06/01 09:40:42;;;;;;;;;3.50;3.00;;;;;18.96;37.82;101145.78;4968266;28;46047;-47
2022/06/01 09:43:25;;;;;;;;;3.00;3.00;;;;;19.05;37.81;101152.53;4971626;28;45637;-47
2022/06/01 09:45:56;;;;;;;;;5.00;5.00;;;;;19.11;37.71;101144.25;4975389;28;45237;-49
2022/06/01 09:48:34;;;;;;;;;4.00;4.00;;;;;19.15;37.66;101146.69;4974401;28;45393;-49
2022/06/01 09:51:22;;;;;;;;;6.00;5.25;;;;;19.22;37.77;101143.78;4972197;28;45223;-47
2022/06/01 09:53:51;;;;;;;;;5.25;5.25;;;;;19.23;37.62;101143.72;4955116;28;45288;-47
2022/06/01 09:56:34;;;;;;;;;3.00;3.00;;;;;19.29;37.73;101142.56;4971796;28;45337;-49
2022/06/01 10:07:29;;;;;;;;;4.00;4.00;;;;;19.67;37.42;101129.31;4972850;28;45789;-47
2022/06/01 10:09:58;;;;;;;;;3.75;3.00;;;;;19.74;37.26;101128.09;4974472;28;45492;-48
2022/06/01 10:12:28;;;;;;;;;3.25;2.75;;;;;19.80;36.89;101127.81;4971948;28;45348;-47
2022/06/01 10:14:55;;;;;;;;;3.25;3.00;;;;;19.86;37.21;101126.69;4972966;28;45418;-47
2022/06/01 10:17:33;;;;;;;;;2.00;2.00;;;;;19.98;37.15;101125.25;4972705;28;45343;-50
2022/06/01 10:20:25;;;;;;;;;5.00;3.00;;;;;20.08;37.13;101126.53;4972086;28;45390;-52
2022/06/01 10:22:54;;;;;;;;;3.00;3.00;;;;;20.14;36.73;101123.56;4971698;28;47188;-49
2022/06/01 10:25:38;;;;;;;;;3.25;3.00;;;;;20.27;37.00;101118.47;4972708;28;45520;-48
2022/06/01 10:28:06;;;;;;;;;2.00;2.00;;;;;20.38;36.87;101128.66;4970586;28;45426;-51
2022/06/01 10:30:49;;;;;;;;;4.00;4.00;;;;;20.47;36.52;101130.00;4974550;28;45841;-50
2022/06/01 10:33:33;;;;;;;;;3.00;3.00;;;;;20.56;36.60;101126.00;4969290;28;45513;-51
2022/06/01 10:36:10;;;;;;;;;3.50;3.50;;;;;20.61;36.24;101116.81;4973351;28;45342;-50
2022/06/01 10:38:54;;;;;;;;;3.00;3.00;;;;;20.68;36.69;101127.19;4971228;28;45465;-51
2022/06/01 10:41:28;;;;;;;;;5.00;3.00;;;;;20.80;36.71;101117.72;4950540;28;45286;-46
2022/06/01 10:44:02;;;;;;;;;4.25;4.25;;;;;20.98;36.68;101107.88;4952275;28;46410;-51
2022/06/01 10:47:11;;;;;;;;;4.00;2.50;;;;;21.25;36.23;101116.25;4951107;28;45347;-46
2022/06/01 10:50:14;;;;;;;;;3.25;3.25;;;;;21.48;36.94;101112.34;4909673;28;45473;-49
2022/06/01 10:53:07;;;;;;;;;2.75;2.00;;;;;21.79;36.31;101108.03;4909056;28;45698;-51
2022/06/01 10:55:42;;;;;;;;;2.00;2.00;;;;;22.14;36.70;101115.00;4940787;28;45667;-51
2022/06/01 10:58:15;;;;;;;;;5.00;3.00;;;;;22.38;36.06;101115.47;4954707;28;45382;-46
2022/06/01 11:00:56;;;;;;;;;2.00;2.00;;;;;22.68;36.08;101107.44;4951292;28;45662;-50
2022/06/01 11:03:36;;;;;;;;;2.75;2.75;;;;;22.95;36.13;101100.50;4941518;28;46090;-49
2022/06/01 11:06:07;;;;;;;;;2.00;2.00;;;;;23.19;35.71;101101.72;4950833;28;45240;-48
2022/06/01 11:08:42;;;;;;;;;2.75;2.75;;;;;23.39;35.76;101096.94;4950428;28;45463;-50
2022/06/01 11:11:29;;;;;;;;;5.50;4.00;;;;;23.59;35.47;101102.88;4952684;28;45373;-56
2022/06/01 11:14:21;;;;;;;;;3.50;3.50;;;;;23.74;35.14;101096.50;4943410;28;45473;-48
2022/06/01 11:17:00;;;;;;;;;3.00;2.25;;;;;23.97;34.83;101089.66;4947569;28;45455;-49
2022/06/01 11:19:48;;;;;;;;;2.00;2.00;;;;;24.21;34.95;101088.19;4952798;28;45258;-47
2022/06/01 11:22:36;;;;;;;;;3.00;3.00;;;;;24.57;34.92;101086.69;4949581;28;45471;-47
2022/06/01 11:25:40;;;;;;;;;2.50;2.50;;;;;24.96;34.37;101082.25;4940930;28;45308;-48
2022/06/01 11:28:38;;;;;;;;;2.00;2.00;;;;;25.42;34.39;101087.09;4947456;28;46240;-50
2022/06/01 11:31:15;;;;;;;;;3.25;3.25;;;;;25.94;34.72;101084.25;4939810;28;45557;-48
2022/06/01 11:33:54;;;;;;;;;3.50;2.25;;;;;26.39;34.61;101078.25;4946579;28;45296;-47
2022/06/01 11:36:50;;;;;;;;;2.00;2.00;;;;;26.96;34.15;101075.75;4935847;28;45355;-49
2022/06/01 11:39:47;;;;;;;;;2.25;2.25;;;;;27.57;34.26;101065.47;4938669;28;45312;-49
2022/06/01 11:42:27;;;;;;;;;2.25;2.25;;;;;28.03;34.03;101084.28;4972557;28;45292;-51
2022/06/01 11:44:59;;;;;;;;;3.00;3.00;;;;;28.42;33.32;101073.84;4949973;28;45329;-50
2022/06/01 11:47:32;;;;;;;;;3.00;2.50;;;;;28.78;33.07;101078.94;4970763;28;45567;-50
2022/06/01 11:50:11;;;;;;;;;2.50;2.50;;;;;29.07;32.77;101070.13;4969975;28;45402;-50
2022/06/01 11:52:53;;;;;;;;;3.00;2.00;;;;;29.42;32.37;101075.19;4967648;28;45192;-49
2022/06/01 11:55:34;;;;;;;;;3.00;2.00;;;;;29.65;32.28;101078.53;4967319;28;45373;-48
2022/06/01 11:58:41;;;;;;;;;3.25;2.00;;;;;29.86;31.82;101071.28;4969771;28;45316;-49
2022/06/01 12:01:13;;;;;;;;;2.75;1.00;;;;;29.94;31.40;101077.75;4959128;28;45418;-50
2022/06/01 12:04:08;;;;;;;;;1.00;1.00;;;;;29.89;30.68;101071.06;4943397;28;45570;-55